createdAt,value
2018-08-09T06:48:00.526Z,388
2018-08-09T06:48:32.568Z,396
2018-08-09T06:49:04.636Z,400
2018-08-09T06:49:36.708Z,408
2018-08-09T06:50:08.788Z,420
2018-08-09T06:50:40.846Z,456
2018-08-09T06:51:12.955Z,508
2018-08-09T06:51:44.969Z,608
2018-08-09T06:52:17.040Z,684
2018-08-09T06:54:08.349Z,600
2018-08-09T06:54:40.378Z,560
2018-08-09T06:55:12.449Z,512
2018-08-09T06:55:44.492Z,488
2018-08-09T06:56:16.577Z,496
2018-08-09T06:56:48.621Z,500
2018-08-09T06:57:20.656Z,500
2018-08-09T06:57:52.698Z,528
2018-08-09T06:58:24.747Z,556
2018-08-09T06:59:00.109Z,584
2018-08-09T06:59:32.748Z,640
2018-08-09T07:02:43.532Z,604
2018-08-09T07:03:15.601Z,548
2018-08-09T07:05:07.034Z,464
2018-08-09T07:05:39.102Z,436
2018-08-09T07:06:11.144Z,428
2018-08-09T07:06:43.275Z,420
2018-08-09T07:07:15.342Z,420
2018-08-09T07:07:47.381Z,428
2018-08-09T07:08:19.461Z,464
2018-08-09T07:08:51.532Z,440
2018-08-09T07:09:23.630Z,376
2018-08-09T07:09:55.683Z,344
2018-08-09T07:10:27.739Z,328
2018-08-09T07:10:59.803Z,332
2018-08-09T07:12:51.620Z,328
2018-08-09T07:13:23.635Z,1716
2018-08-09T07:15:15.371Z,2060
2018-08-09T07:15:47.433Z,2132
2018-08-09T07:17:39.045Z,2192
2018-08-09T07:18:11.090Z,2160
2018-08-09T07:18:43.098Z,2128
2018-08-09T07:19:15.124Z,2096
2018-08-09T07:19:47.159Z,2088
2018-08-09T07:20:19.219Z,2140
2018-08-09T07:20:51.303Z,2208
2018-08-09T07:21:23.387Z,2300
2018-08-09T07:21:55.437Z,2412
2018-08-09T07:22:27.489Z,2476
2018-08-09T07:22:59.515Z,2504
2018-08-09T07:23:31.565Z,2504
2018-08-09T07:24:03.649Z,2492
2018-08-09T07:24:35.702Z,2484
2018-08-09T07:25:07.771Z,2468
2018-08-09T07:25:39.817Z,2448
2018-08-09T07:26:11.890Z,2404
2018-08-09T07:26:43.908Z,2344
2018-08-09T07:27:15.960Z,2320
2018-08-09T07:27:48.008Z,2284
2018-08-09T07:28:20.055Z,2280
2018-08-09T07:28:52.108Z,2304
2018-08-09T07:29:24.181Z,2364
2018-08-09T07:29:56.263Z,2416
2018-08-09T07:30:28.315Z,2464
2018-08-09T07:31:00.379Z,2492
2018-08-09T07:31:32.438Z,2496
2018-08-09T07:32:04.482Z,2496
2018-08-09T07:32:36.561Z,2480
2018-08-09T07:33:08.645Z,2460
2018-08-09T07:33:40.747Z,2456
2018-08-09T07:34:12.819Z,2476
2018-08-09T07:34:45.123Z,2484
2018-08-09T07:36:36.842Z,2464
2018-08-09T07:38:28.563Z,2644
2018-08-09T07:39:00.661Z,2844
2018-08-09T07:39:32.858Z,2644
2018-08-09T07:40:04.913Z,3880
2018-08-09T07:40:36.983Z,2992
2018-08-09T07:42:28.565Z,4552
2018-08-09T07:44:20.314Z,4428
2018-08-09T07:44:52.396Z,4380
2018-08-09T07:45:24.480Z,4364
2018-08-09T07:47:16.241Z,4188
2018-08-09T07:47:48.343Z,4100
2018-08-09T07:48:20.469Z,4080
2018-08-09T07:48:52.600Z,3744
2018-08-09T07:49:24.589Z,2380
2018-08-09T07:49:56.680Z,2272
2018-08-09T07:50:28.750Z,2144
2018-08-09T07:51:02.332Z,2076
2018-08-09T07:51:34.526Z,2056
2018-08-09T07:52:06.606Z,2076
2018-08-09T07:52:38.659Z,2128
2018-08-09T07:53:10.734Z,2196
2018-08-09T07:55:02.571Z,2296
2018-08-09T07:56:54.015Z,2120
2018-08-09T07:57:26.089Z,2072
2018-08-09T07:57:58.183Z,2056
2018-08-09T07:58:30.268Z,2076
2018-08-09T07:59:02.343Z,2108
2018-08-09T07:59:34.431Z,2136
2018-08-09T08:00:06.548Z,2152
2018-08-09T08:00:38.687Z,2168
2018-08-09T08:01:10.812Z,2180
2018-08-09T08:01:42.989Z,2192
2018-08-09T08:02:15.150Z,2188
2018-08-09T08:02:47.253Z,2160
2018-08-09T08:03:19.347Z,2112
2018-08-09T08:03:51.450Z,2072
2018-08-09T08:04:23.494Z,2052
2018-08-09T08:04:55.561Z,2040
2018-08-09T08:06:46.915Z,2000
2018-08-09T08:07:19.014Z,1992
2018-08-09T08:07:51.090Z,1988
2018-08-09T08:08:23.219Z,1984
2018-08-09T08:08:55.200Z,1992
2018-08-09T08:10:46.503Z,2060
2018-08-09T08:11:18.610Z,2088
2018-08-09T08:11:50.850Z,2120
2018-08-09T08:13:42.506Z,2156
2018-08-09T08:14:14.622Z,2164
2018-08-09T08:14:46.698Z,2168
2018-08-09T08:15:19.022Z,2168
2018-08-09T08:17:10.511Z,2008
2018-08-09T08:18:41.951Z,1824
2018-08-09T08:19:14.039Z,1988
2018-08-09T08:21:05.363Z,1924
2018-08-09T08:21:37.437Z,1928
2018-08-09T08:22:09.506Z,1928
2018-08-09T08:22:41.575Z,1924
2018-08-09T08:23:13.639Z,1916
2018-08-09T08:23:45.760Z,1900
2018-08-09T08:24:17.854Z,1672
2018-08-09T08:24:49.938Z,1684
2018-08-09T08:25:22.012Z,1724
2018-08-09T08:25:54.099Z,1800
2018-08-09T08:27:45.594Z,2204
2018-08-09T08:28:17.693Z,2292
2018-08-09T08:28:49.764Z,2352
2018-08-09T08:29:21.855Z,2372
2018-08-09T08:29:53.891Z,2352
2018-08-09T08:30:25.977Z,2308
2018-08-09T08:32:17.453Z,2116
2018-08-09T08:32:49.551Z,2084
2018-08-09T08:34:41.049Z,2060
2018-08-09T08:35:13.734Z,2052
2018-08-09T08:35:46.051Z,2040
2018-08-09T08:36:18.119Z,2032
2018-08-09T08:36:50.243Z,2028
2018-08-09T08:37:22.352Z,2036
2018-08-09T08:37:54.466Z,2060
2018-08-09T08:39:46.101Z,2360
2018-08-09T08:40:18.182Z,2508
2018-08-09T08:40:50.273Z,2684
2018-08-09T08:42:42.098Z,3480
2018-08-09T08:43:14.329Z,3900
2018-08-09T08:43:46.609Z,3840
2018-08-09T08:44:18.852Z,3736
2018-08-09T08:47:30.041Z,3076
2018-08-09T08:48:02.055Z,2912
2018-08-09T08:48:34.145Z,2780
2018-08-09T08:49:06.236Z,2700
2018-08-09T08:49:38.337Z,2684
2018-08-09T08:51:30.113Z,3064
2018-08-09T08:52:02.182Z,3188
2018-08-09T08:52:34.264Z,3296
2018-08-09T08:53:06.376Z,3412
2018-08-09T08:53:38.511Z,3528
2018-08-09T08:54:10.610Z,3676
2018-08-09T08:54:42.746Z,3708
2018-08-09T08:55:14.797Z,3788
2018-08-09T08:55:46.879Z,3860
2018-08-09T08:56:18.987Z,3924
2018-08-09T08:56:51.073Z,4016
2018-08-09T08:57:23.179Z,4132
2018-08-09T08:57:55.302Z,4488
2018-08-09T08:58:27.383Z,4048
2018-08-09T08:58:59.460Z,3860
2018-08-09T08:59:31.557Z,3716
2018-08-09T09:01:23.210Z,3592
2018-08-09T09:01:55.292Z,3620
2018-08-09T09:02:27.365Z,3656
2018-08-09T09:02:59.461Z,3680
2018-08-09T09:03:31.559Z,3688
2018-08-09T09:04:03.712Z,3696
2018-08-09T09:04:35.820Z,3756
2018-08-09T09:05:08.010Z,3836
2018-08-09T09:05:40.098Z,3964
2018-08-09T09:07:31.559Z,4052
2018-08-09T09:08:03.614Z,3988
2018-08-09T09:08:35.729Z,3960
2018-08-09T09:10:39.713Z,3856
2018-08-09T09:11:11.762Z,3576
2018-08-09T09:11:43.823Z,3540
2018-08-09T09:12:18.032Z,3520
2018-08-09T09:12:50.497Z,3524
2018-08-09T09:13:22.537Z,3496
2018-08-09T09:13:54.634Z,3460
2018-08-09T09:14:26.717Z,3304
2018-08-09T09:14:58.786Z,3112
2018-08-09T09:15:30.894Z,3052
2018-08-09T09:16:03.013Z,2968
2018-08-09T09:17:54.544Z,2860
2018-08-09T09:19:46.102Z,2616
2018-08-09T09:20:18.162Z,2532
2018-08-09T09:20:50.285Z,2452
2018-08-09T09:22:42.045Z,2176
2018-08-09T09:23:15.079Z,2128
2018-08-09T09:23:47.217Z,2084
2018-08-09T09:24:19.513Z,2048
2018-08-09T09:24:51.625Z,2016
2018-08-09T09:25:23.770Z,1980
2018-08-09T09:25:55.846Z,1944
2018-08-09T09:26:27.927Z,1916
2018-08-09T09:27:00.059Z,1900
2018-08-09T09:27:32.102Z,1896
2018-08-09T09:28:04.210Z,1904
2018-08-09T09:28:36.262Z,1924
2018-08-09T09:29:08.343Z,1964
2018-08-09T09:29:40.445Z,2016
2018-08-09T09:30:12.561Z,2072
2018-08-09T09:30:44.645Z,2152
2018-08-09T09:31:16.836Z,2252
2018-08-09T09:31:49.068Z,2356
2018-08-09T09:32:21.522Z,2460
2018-08-09T09:34:13.129Z,2840
2018-08-09T09:34:45.289Z,2956
2018-08-09T09:35:17.438Z,3064
2018-08-09T09:35:49.502Z,3144
2018-08-09T09:36:21.524Z,3200
2018-08-09T09:36:53.608Z,3236
2018-08-09T09:37:25.688Z,3272
2018-08-09T09:37:57.790Z,3320
2018-08-09T09:38:29.847Z,3376
2018-08-09T09:39:01.913Z,3412
2018-08-09T09:39:34.005Z,3412
2018-08-09T09:40:06.006Z,3380
2018-08-09T09:40:38.074Z,3312
2018-08-09T09:41:10.131Z,3232
2018-08-09T09:41:42.313Z,3152
2018-08-09T09:42:14.373Z,3080
2018-08-09T09:42:46.473Z,3048
2018-08-09T09:44:37.905Z,3236
2018-08-09T09:46:29.800Z,3664
2018-08-09T09:47:01.897Z,3728
2018-08-09T09:47:33.988Z,3796
2018-08-09T09:48:06.065Z,3856
2018-08-09T09:51:17.162Z,3896
2018-08-09T09:51:49.222Z,3844
2018-08-09T09:52:21.437Z,3788
2018-08-09T09:52:53.528Z,3728
2018-08-09T09:53:25.609Z,3668
2018-08-09T09:55:16.934Z,3384
2018-08-09T09:55:49.059Z,3304
2018-08-09T09:56:21.506Z,3248
2018-08-09T09:56:53.663Z,3208
2018-08-09T09:57:26.541Z,3200
2018-08-09T09:57:58.751Z,3220
2018-08-09T09:58:30.846Z,3276
2018-08-09T09:59:02.880Z,3372
2018-08-09T09:59:35.032Z,3476
2018-08-09T10:00:07.831Z,3572
2018-08-09T10:00:39.903Z,3636
2018-08-09T10:01:12.008Z,3684
2018-08-09T10:03:03.588Z,3860
2018-08-09T10:03:35.687Z,3952
2018-08-09T10:04:07.759Z,4036
2018-08-09T10:04:39.862Z,4024
2018-08-09T10:05:11.931Z,4052
2018-08-09T10:05:44.023Z,3820
2018-08-09T10:06:16.117Z,3684
2018-08-09T10:06:48.143Z,3576
2018-08-09T10:07:20.288Z,3480
2018-08-09T10:09:11.954Z,3488
2018-08-09T10:09:44.037Z,3548
2018-08-09T10:10:16.108Z,3604
2018-08-09T10:10:48.197Z,3640
2018-08-09T10:11:20.523Z,3644
2018-08-09T10:11:52.589Z,3628
2018-08-09T10:12:24.684Z,3608
2018-08-09T10:12:56.769Z,3560
2018-08-09T10:13:28.818Z,3504
2018-08-09T10:14:00.917Z,3432
2018-08-09T10:14:33.021Z,3364
2018-08-09T10:15:05.119Z,3300
2018-08-09T10:15:37.224Z,3232
2018-08-09T10:16:09.290Z,3164
2018-08-09T10:16:41.427Z,3120
2018-08-09T10:18:33.032Z,3004
2018-08-09T10:19:05.126Z,2996
2018-08-09T10:19:37.249Z,3000
2018-08-09T10:20:09.338Z,3008
2018-08-09T10:20:41.445Z,3016
2018-08-09T10:21:13.534Z,3012
2018-08-09T10:21:45.624Z,3004
2018-08-09T10:22:17.720Z,2992
2018-08-09T10:22:49.832Z,2980
2018-08-09T10:23:21.926Z,2948
2018-08-09T10:23:54.002Z,2916
2018-08-09T10:24:26.107Z,2904
2018-08-09T10:24:58.199Z,2908
2018-08-09T10:25:30.278Z,2912
2018-08-09T10:26:02.400Z,2904
2018-08-09T10:26:34.496Z,2880
2018-08-09T10:27:06.580Z,2840
2018-08-09T10:27:38.675Z,2844
2018-08-09T10:29:30.546Z,3236
2018-08-09T10:30:02.644Z,3344
2018-08-09T10:30:34.726Z,3384
2018-08-09T10:31:06.827Z,3352
2018-08-09T10:31:38.972Z,3312
2018-08-09T10:32:13.062Z,3336
2018-08-09T10:32:45.123Z,3416
2018-08-09T10:33:20.164Z,3520
2018-08-09T10:35:11.775Z,3684
2018-08-09T10:35:43.856Z,3688
2018-08-09T10:36:15.969Z,3696
2018-08-09T10:38:07.541Z,3700
2018-08-09T10:38:39.639Z,3716
2018-08-09T10:39:11.761Z,3740
2018-08-09T10:39:43.852Z,3760
2018-08-09T10:42:54.798Z,4172
2018-08-09T10:43:26.891Z,4308
2018-08-09T10:43:58.972Z,4464
2018-08-09T10:44:31.046Z,4632
2018-08-09T10:45:03.136Z,4804
2018-08-09T10:45:35.219Z,5092
2018-08-09T10:46:07.327Z,5084
2018-08-09T10:46:39.388Z,4876
2018-08-09T10:47:11.468Z,4816
2018-08-09T10:47:43.561Z,4720
2018-08-09T10:48:15.683Z,4704
2018-08-09T10:48:47.755Z,4676
2018-08-09T10:49:19.852Z,4672
2018-08-09T10:49:51.943Z,4680
2018-08-09T10:50:24.035Z,4744
2018-08-09T10:50:56.143Z,4936
2018-08-09T10:51:28.224Z,4912
2018-08-09T10:52:00.399Z,4968
2018-08-09T10:53:51.974Z,5988
2018-08-09T10:54:24.062Z,5152
2018-08-09T10:54:56.142Z,4996
2018-08-09T10:55:28.224Z,4848
2018-08-09T10:56:00.294Z,4736
2018-08-09T10:56:32.391Z,4740
2018-08-09T10:57:04.455Z,4804
2018-08-09T10:57:36.541Z,4876
2018-08-09T10:58:08.634Z,5088
2018-08-09T10:58:40.731Z,4740
2018-08-09T10:59:12.805Z,4916
2018-08-09T10:59:44.897Z,5048
2018-08-09T11:00:16.969Z,5704
2018-08-09T11:00:49.031Z,5960
2018-08-09T11:01:21.129Z,4724
2018-08-09T11:01:53.183Z,4604
2018-08-09T11:03:44.707Z,4220
2018-08-09T11:05:36.217Z,4264
2018-08-09T11:06:08.301Z,4260
2018-08-09T11:06:40.356Z,4284
2018-08-09T11:07:12.452Z,4388
2018-08-09T11:07:44.544Z,4604
2018-08-09T11:08:16.676Z,4976
2018-08-09T11:08:48.775Z,5384
2018-08-09T11:09:20.864Z,5664
2018-08-09T11:09:53.036Z,5952
2018-08-09T11:10:25.105Z,6216
2018-08-09T11:10:57.185Z,6356
2018-08-09T11:11:29.244Z,6808
2018-08-09T11:12:01.338Z,6500
2018-08-09T11:12:33.438Z,7200
2018-08-09T11:13:05.520Z,5172
2018-08-09T11:13:37.594Z,5108
2018-08-09T11:14:09.683Z,5564
2018-08-09T11:14:41.771Z,7392
2018-08-09T11:15:13.880Z,6128
2018-08-09T11:15:45.964Z,5820
2018-08-09T11:16:18.057Z,5744
2018-08-09T11:16:50.155Z,5644
2018-08-09T11:18:41.548Z,6184
2018-08-09T11:20:33.322Z,6604
2018-08-09T11:21:05.426Z,6712
2018-08-09T11:21:37.511Z,7364
2018-08-09T11:22:09.586Z,7224
2018-08-09T11:24:01.128Z,5716
2018-08-09T11:24:43.370Z,5728
2018-08-09T11:25:15.440Z,5788
2018-08-09T11:25:47.539Z,6896
2018-08-09T11:26:19.588Z,7540
2018-08-09T11:26:51.674Z,6396
2018-08-09T11:28:43.243Z,8016
2018-08-09T11:29:15.339Z,7704
2018-08-09T11:29:47.432Z,7644
2018-08-09T11:30:19.524Z,6504
2018-08-09T11:30:51.624Z,7648
2018-08-09T11:31:23.706Z,7796
2018-08-09T11:31:55.764Z,7508
2018-08-09T11:32:27.848Z,7620
2018-08-09T11:32:59.922Z,8204
2018-08-09T11:34:51.329Z,7668
2018-08-09T11:35:23.682Z,7476
2018-08-09T11:35:55.760Z,7504
2018-08-09T11:36:27.821Z,7596
2018-08-09T11:36:59.915Z,7632
2018-08-09T11:37:32.010Z,7672
2018-08-09T11:38:04.132Z,7744
2018-08-09T11:38:37.422Z,7640
2018-08-09T11:39:10.662Z,7548
2018-08-09T11:39:42.932Z,7380
2018-08-09T11:40:14.958Z,7324
2018-08-09T11:40:47.019Z,7288
2018-08-09T11:41:19.107Z,7324
2018-08-09T11:41:51.198Z,7152
2018-08-09T11:42:23.254Z,7180
2018-08-09T11:42:55.362Z,7152
2018-08-09T11:43:27.457Z,7092
2018-08-09T11:43:59.529Z,7116
2018-08-09T11:44:31.621Z,7228
2018-08-09T11:45:03.724Z,7252
2018-08-09T11:45:35.829Z,7268
2018-08-09T11:46:07.911Z,7344
2018-08-09T11:46:39.987Z,7508
2018-08-09T11:47:12.112Z,7416
2018-08-09T11:47:44.188Z,7444
2018-08-09T11:48:16.301Z,7696
2018-08-09T11:48:48.393Z,7832
2018-08-09T11:49:20.517Z,7644
2018-08-09T11:49:52.604Z,7800
2018-08-09T11:50:24.686Z,7928
2018-08-09T11:50:56.796Z,7920
2018-08-09T11:51:28.856Z,8024
2018-08-09T11:53:20.525Z,8820
2018-08-09T11:53:52.625Z,8996
2018-08-09T11:54:24.717Z,9060
2018-08-09T11:56:16.289Z,8872
2018-08-09T11:56:48.320Z,9260
2018-08-09T11:57:20.409Z,9320
2018-08-09T11:57:52.457Z,9224
2018-08-09T11:58:24.547Z,9172
2018-08-09T11:58:56.656Z,9128
2018-08-09T11:59:28.733Z,8960
2018-08-09T12:01:20.556Z,9080
2018-08-09T12:01:52.645Z,8740
2018-08-09T12:02:24.721Z,9492
2018-08-09T12:04:16.187Z,7552
2018-08-09T12:04:48.302Z,8260
2018-08-09T12:05:20.372Z,9736
2018-08-09T12:05:52.463Z,8500
2018-08-09T12:06:24.553Z,9756
2018-08-09T12:06:56.632Z,8044
2018-08-09T12:07:28.725Z,9108
2018-08-09T12:09:20.235Z,8852
2018-08-09T12:09:52.307Z,8900
2018-08-09T12:10:24.416Z,9600
2018-08-09T12:10:56.518Z,9612
2018-08-09T12:11:28.604Z,9128
2018-08-09T12:12:00.681Z,9392
2018-08-09T12:12:32.753Z,9216
2018-08-09T12:13:04.841Z,9280
2018-08-09T12:14:56.387Z,5736
2018-08-09T12:18:07.703Z,9688
2018-08-09T12:18:39.786Z,7800
2018-08-09T12:19:11.857Z,5772
2018-08-09T12:22:23.146Z,3804
2018-08-09T12:22:55.213Z,3712
2018-08-09T12:24:46.635Z,4804
2018-08-09T12:25:18.702Z,6780
2018-08-09T12:25:50.800Z,7196
2018-08-09T12:26:22.878Z,8764
2018-08-09T12:28:14.374Z,7172
2018-08-09T12:28:46.463Z,9892
2018-08-09T12:29:18.546Z,11436
2018-08-09T12:29:50.605Z,11516
2018-08-09T12:30:22.720Z,11516
2018-08-09T12:30:54.773Z,11496
2018-08-09T12:31:26.886Z,11232
2018-08-09T12:31:58.953Z,11152
2018-08-09T12:32:31.045Z,11168
2018-08-09T12:33:03.175Z,11052
2018-08-09T12:33:35.229Z,11052
2018-08-09T12:34:07.328Z,11144
2018-08-09T12:34:39.434Z,10880
2018-08-09T12:35:11.541Z,11188
2018-08-09T12:35:43.643Z,11372
2018-08-09T12:36:15.701Z,11396
2018-08-09T12:36:47.846Z,11412
2018-08-09T12:37:19.891Z,11436
2018-08-09T12:37:52.000Z,11532
2018-08-09T12:38:24.085Z,11680
2018-08-09T12:38:56.186Z,11752
2018-08-09T12:39:28.397Z,11780
2018-08-09T12:42:39.711Z,12160
2018-08-09T12:43:11.812Z,12220
2018-08-09T12:43:43.916Z,12364
2018-08-09T12:44:16.002Z,12320
2018-08-09T12:44:48.101Z,12348
2018-08-09T12:45:20.262Z,12336
2018-08-09T12:47:11.572Z,12832
2018-08-09T12:47:43.680Z,12844
2018-08-09T12:48:15.779Z,12952
2018-08-09T12:48:47.869Z,13136
2018-08-09T12:49:19.984Z,13168
2018-08-09T12:49:52.074Z,13244
2018-08-09T12:50:24.179Z,13424
2018-08-09T12:50:56.299Z,13604
2018-08-09T12:51:28.403Z,13636
2018-08-09T12:52:00.488Z,13628
2018-08-09T12:52:32.595Z,13828
2018-08-09T12:53:04.684Z,13992
2018-08-09T12:53:36.765Z,13936
2018-08-09T12:54:08.872Z,14004
2018-08-09T12:54:40.949Z,13100
2018-08-09T12:55:13.013Z,12636
2018-08-09T12:55:45.118Z,11844
2018-08-09T12:56:17.195Z,10712
2018-08-09T12:56:49.284Z,11036
2018-08-09T12:57:21.371Z,12084
2018-08-09T12:57:53.480Z,14224
2018-08-09T12:58:25.566Z,14504
2018-08-09T12:58:57.645Z,14808
2018-08-09T13:00:49.366Z,14684
2018-08-09T13:01:21.749Z,15108
2018-08-09T13:03:13.237Z,15996
2018-08-09T13:05:04.564Z,16504
2018-08-09T13:05:36.695Z,16696
2018-08-09T13:06:08.983Z,16768
2018-08-09T13:06:41.102Z,16916
2018-08-09T13:07:13.247Z,17244
2018-08-09T13:07:45.325Z,17188
2018-08-09T13:08:17.457Z,17260
2018-08-09T13:08:49.650Z,17032
2018-08-09T13:12:00.837Z,17040
2018-08-09T13:12:32.902Z,16524
2018-08-09T13:13:04.932Z,15328
2018-08-09T13:13:37.026Z,15748
2018-08-09T13:14:09.136Z,16456
2018-08-09T13:14:41.218Z,16812
2018-08-09T13:15:13.313Z,16196
2018-08-09T13:15:45.388Z,16204
2018-08-09T13:16:17.486Z,15028
2018-08-09T13:16:49.610Z,15780
2018-08-09T13:17:21.681Z,16072
2018-08-09T13:17:53.804Z,16796
2018-08-09T13:18:25.872Z,16292
2018-08-09T13:18:57.967Z,15624
2018-08-09T13:20:49.748Z,16864
2018-08-09T13:21:21.841Z,16072
2018-08-09T13:21:53.916Z,14256
2018-08-09T13:22:26.008Z,12968
2018-08-09T13:22:58.114Z,12120
2018-08-09T13:23:30.329Z,11852
2018-08-09T13:24:02.317Z,12588
2018-08-09T13:24:34.397Z,13128
2018-08-09T13:25:06.536Z,12576
2018-08-09T13:25:38.630Z,11980
2018-08-09T13:26:10.710Z,11624
2018-08-09T13:26:42.792Z,11156
2018-08-09T13:28:34.346Z,11260
2018-08-09T13:29:06.418Z,10744
2018-08-09T13:30:58.110Z,8124
2018-08-09T13:31:30.198Z,7256
2018-08-09T13:32:02.300Z,6588
2018-08-09T13:32:34.359Z,6452
2018-08-09T13:33:06.467Z,6400
2018-08-09T13:33:38.569Z,6712
2018-08-09T13:34:10.657Z,5920
2018-08-09T13:36:02.146Z,6256
2018-08-09T13:36:34.237Z,6808
2018-08-09T13:37:06.323Z,7208
2018-08-09T13:37:38.379Z,6960
2018-08-09T13:39:29.763Z,7200
2018-08-09T13:41:21.123Z,6616
2018-08-09T13:43:12.496Z,6208
2018-08-09T13:43:44.540Z,6064
2018-08-09T13:44:16.623Z,5872
2018-08-09T13:44:48.701Z,5500
2018-08-09T13:45:20.817Z,5076
2018-08-09T13:45:52.916Z,4804
2018-08-09T13:46:24.998Z,4664
2018-08-09T13:46:57.090Z,4328
2018-08-09T13:47:29.195Z,4088
2018-08-09T13:48:01.305Z,3944
2018-08-09T13:48:33.377Z,3836
2018-08-09T13:49:05.482Z,3704
2018-08-09T13:49:37.563Z,3584
2018-08-09T13:50:09.654Z,3404
2018-08-09T13:50:41.758Z,3300
2018-08-09T13:52:33.377Z,3016
2018-08-09T13:53:05.478Z,2924
2018-08-09T13:53:37.578Z,2840
2018-08-09T13:54:09.672Z,2764
2018-08-09T13:54:41.776Z,2696
2018-08-09T13:55:13.886Z,2632
2018-08-09T13:55:45.976Z,2572
2018-08-09T13:56:18.060Z,2528
2018-08-09T13:56:50.107Z,2492
2018-08-09T14:00:00.871Z,2440
2018-08-09T14:00:32.930Z,2452
2018-08-09T14:01:04.986Z,2452
2018-08-09T14:01:37.070Z,2448
2018-08-09T14:03:28.646Z,2412
2018-08-09T14:05:20.374Z,2368
2018-08-09T14:05:52.457Z,2364
2018-08-09T14:06:24.531Z,2364
2018-08-09T14:06:56.630Z,2364
2018-08-09T14:07:28.734Z,2372
2018-08-09T14:08:00.814Z,2376
2018-08-09T14:08:32.893Z,2388
2018-08-09T14:10:24.239Z,2460
2018-08-09T14:10:56.315Z,2488
2018-08-09T14:11:28.410Z,2512
2018-08-09T14:12:00.502Z,2540
2018-08-09T14:12:32.591Z,2564
2018-08-09T14:13:04.700Z,2588
2018-08-09T14:13:36.787Z,2612
2018-08-09T14:14:08.880Z,2636
2018-08-09T14:14:40.974Z,2664
2018-08-09T14:15:13.056Z,2700
2018-08-09T14:15:45.160Z,2744
2018-08-09T14:17:36.744Z,2856
2018-08-09T14:19:28.316Z,2852
2018-08-09T14:21:19.738Z,2636
2018-08-09T14:21:51.842Z,2548
2018-08-09T14:22:23.925Z,2480
2018-08-09T14:22:56.005Z,2416
2018-08-09T14:23:28.095Z,2344
2018-08-09T14:25:19.791Z,2044
2018-08-09T14:27:11.270Z,1812
2018-08-09T14:27:43.366Z,1772
2018-08-09T14:28:15.466Z,1744
2018-08-09T14:28:47.556Z,1724
2018-08-09T14:29:19.655Z,1708
2018-08-09T14:29:51.756Z,1700
2018-08-09T14:30:23.845Z,1684
2018-08-09T14:30:55.942Z,1664
2018-08-09T14:31:28.051Z,1644
2018-08-09T14:32:00.185Z,1608
2018-08-09T14:32:32.273Z,1580
2018-08-09T14:33:04.433Z,1544
2018-08-09T14:33:36.456Z,1512
2018-08-09T14:34:08.529Z,1480
2018-08-09T14:34:40.619Z,1448
2018-08-09T14:35:12.715Z,1416
2018-08-09T14:35:44.812Z,1380
2018-08-09T14:36:16.909Z,1344
2018-08-09T14:36:48.999Z,1304
2018-08-09T14:37:21.106Z,1264
2018-08-09T14:39:12.759Z,1144
2018-08-09T14:41:04.332Z,1008
2018-08-09T14:41:36.408Z,964
2018-08-09T14:42:08.541Z,916
2018-08-09T14:44:00.276Z,672
2018-08-09T14:45:51.681Z,444
2018-08-09T14:47:43.249Z,336
2018-08-09T14:48:15.279Z,316
2018-08-09T14:48:47.366Z,292
2018-08-09T14:50:38.847Z,232
2018-08-09T14:51:10.920Z,220
2018-08-09T14:51:43.020Z,204
2018-08-09T14:52:15.092Z,188
2018-08-09T14:52:47.194Z,176
2018-08-09T14:53:19.311Z,160
2018-08-09T14:53:51.364Z,152
2018-08-09T14:54:23.435Z,144
2018-08-09T14:54:55.509Z,136
2018-08-09T14:55:27.605Z,124
2018-08-09T14:55:59.689Z,112
2018-08-09T14:56:31.804Z,104
2018-08-09T14:58:23.200Z,80
2018-08-09T14:58:55.291Z,76
2018-08-09T14:59:27.368Z,72
2018-08-09T14:59:59.465Z,68
2018-08-09T15:00:31.532Z,60
2018-08-09T15:01:03.662Z,60
2018-08-09T15:01:35.742Z,60
2018-08-09T15:03:27.360Z,40
2018-08-09T15:03:59.426Z,36
2018-08-09T15:04:31.510Z,32
2018-08-09T15:05:03.611Z,32
2018-08-09T15:05:35.795Z,24
2018-08-09T15:06:07.797Z,24
2018-08-09T15:09:18.525Z,12
2018-08-09T15:09:50.650Z,12
2018-08-09T15:10:22.751Z,16
2018-08-09T15:10:54.842Z,12
2018-08-09T15:11:26.947Z,20
2018-08-09T15:11:59.022Z,20
2018-08-09T15:12:31.130Z,20
2018-08-09T15:13:03.219Z,20
2018-08-09T15:13:35.312Z,28
2018-08-09T15:15:26.786Z,36
2018-08-09T15:15:58.897Z,44
2018-08-09T15:17:50.370Z,48
2018-08-09T15:18:22.453Z,52
2018-08-09T15:18:54.552Z,56
2018-08-09T15:19:26.643Z,60
2018-08-09T15:21:18.302Z,76
2018-08-09T15:21:50.403Z,80
2018-08-09T15:22:22.496Z,84
2018-08-09T15:22:54.702Z,96
2018-08-09T15:23:26.703Z,100
2018-08-09T15:23:58.805Z,104
2018-08-09T15:24:30.970Z,112
2018-08-09T15:25:02.985Z,120
2018-08-09T15:25:35.081Z,128
2018-08-09T15:26:07.180Z,136
2018-08-09T15:26:39.297Z,144
2018-08-09T15:27:11.363Z,156
2018-08-09T15:27:43.447Z,164
2018-08-09T15:28:15.537Z,176
2018-08-09T15:28:47.627Z,188
2018-08-09T15:29:19.736Z,200
2018-08-09T15:29:51.840Z,216
2018-08-09T15:30:23.947Z,236
2018-08-09T15:32:15.743Z,308
2018-08-09T15:32:47.805Z,340
2018-08-09T15:33:19.911Z,368
2018-08-09T15:33:52.000Z,400
2018-08-09T15:34:24.103Z,428
2018-08-09T15:34:56.199Z,460
2018-08-09T15:35:28.310Z,496
2018-08-09T15:36:00.389Z,536
2018-08-09T15:36:32.490Z,584
2018-08-09T15:37:04.595Z,632
2018-08-09T15:37:36.650Z,688
2018-08-09T15:38:08.800Z,752
2018-08-09T15:38:40.842Z,812
2018-08-09T15:39:12.931Z,880
2018-08-09T15:39:45.021Z,948
2018-08-09T15:40:17.114Z,1008
2018-08-09T15:40:49.204Z,1068
2018-08-09T15:41:21.296Z,1128
2018-08-09T15:41:53.370Z,1188
2018-08-09T15:42:25.454Z,1248
2018-08-09T15:42:57.545Z,1320
2018-08-09T15:44:49.060Z,1636
2018-08-09T15:45:21.158Z,1752
2018-08-09T15:45:53.260Z,1884
2018-08-09T15:47:44.810Z,2504
2018-08-09T15:48:16.815Z,2732
2018-08-09T15:48:48.898Z,3004
2018-08-09T15:49:20.998Z,3292
2018-08-09T15:51:12.315Z,4348
2018-08-09T15:51:44.412Z,4576
2018-08-09T15:52:16.521Z,4744
2018-08-09T15:52:48.640Z,4884
2018-08-09T15:53:20.754Z,5036
2018-08-09T15:53:52.847Z,5164
2018-08-09T15:54:24.986Z,5236
2018-08-09T15:54:57.046Z,5232
2018-08-09T15:55:29.130Z,5176
2018-08-09T15:56:01.233Z,5092
2018-08-09T15:57:52.756Z,5060
2018-08-09T15:58:24.851Z,4976
2018-08-09T15:58:56.961Z,4948
2018-08-09T15:59:29.050Z,4904
2018-08-09T16:00:01.164Z,4876
2018-08-09T16:00:33.216Z,4848
2018-08-09T16:01:05.293Z,4804
2018-08-09T16:01:37.380Z,4756
2018-08-09T16:02:09.486Z,4744
2018-08-09T16:02:41.654Z,4624
2018-08-09T16:04:32.980Z,4372
2018-08-09T16:05:05.080Z,4316
2018-08-09T16:06:56.490Z,3964
2018-08-09T16:07:28.578Z,3924
2018-08-09T16:08:00.635Z,3896
2018-08-09T16:08:32.731Z,3852
2018-08-09T16:09:04.841Z,3696
2018-08-09T16:09:36.915Z,3464
2018-08-09T16:11:28.334Z,2684
2018-08-09T16:12:00.439Z,2512
2018-08-09T16:12:32.551Z,2380
2018-08-09T16:13:04.652Z,2256
2018-08-09T16:13:36.752Z,2140
2018-08-09T16:14:08.864Z,2048
2018-08-09T16:14:40.975Z,1984
2018-08-09T16:15:13.037Z,1940
2018-08-09T16:15:45.131Z,1908
2018-08-09T16:16:17.318Z,1880
2018-08-09T16:16:49.306Z,1868
2018-08-09T16:17:21.364Z,1852
2018-08-09T16:19:12.757Z,1848
2018-08-09T16:19:44.849Z,1856
2018-08-09T16:21:36.415Z,1864
2018-08-09T16:22:08.524Z,1872
2018-08-09T16:22:40.571Z,1872
2018-08-09T16:23:12.690Z,1880
2018-08-09T16:23:44.791Z,1868
2018-08-09T16:24:16.868Z,1860
2018-08-09T16:26:08.431Z,1784
2018-08-09T16:26:40.521Z,1756
2018-08-09T16:27:12.613Z,1720
2018-08-09T16:27:44.707Z,1688
2018-08-09T16:28:17.053Z,1656
2018-08-09T16:28:49.273Z,1620
2018-08-09T16:29:21.365Z,1592
2018-08-09T16:29:53.533Z,1560
2018-08-09T16:30:25.581Z,1528
2018-08-09T16:30:57.679Z,1496
2018-08-09T16:31:29.767Z,1472
2018-08-09T16:32:01.875Z,1448
2018-08-09T16:32:33.975Z,1428